Time;durP1;ratioP1;P1;durP2;ratioP2;P2;SDS_P1;SDS_P2;PMS_P1;PMS_P2;Temp;Humidity;BMP_temperature;BMP_pressure;BME280_temperature;BME280_humidity;BME280_pressure;Samples;Min_cycle;Max_cycle;Signal;HPM_P1;HPM_P2
2021/01/06 00:01:22;;;;;;;23.13;10.75;;;;;;;2.63;87.29;99203.47;5051539;28;20041;-71
2021/01/06 00:03:52;;;;;;;18.20;9.45;;;;;;;2.63;87.96;99195.91;5051595;28;20052;-72
2021/01/06 00:06:25;;;;;;;18.87;11.03;;;;;;;2.45;87.56;99160.22;5051581;28;20048;-72
2021/01/06 00:08:53;;;;;;;21.65;10.43;;;;;;;2.62;87.80;99188.31;5051571;28;20495;-71
2021/01/06 00:11:31;;;;;;;20.25;10.45;;;;;;;2.58;88.06;99179.84;5051472;28;20076;-71
2021/01/06 00:13:59;;;;;;;21.00;10.48;;;;;;;2.60;87.44;99184.91;5051505;28;20048;-71
2021/01/06 00:16:28;;;;;;;23.70;11.10;;;;;;;2.66;87.88;99188.41;5051421;28;20049;-71
2021/01/06 00:18:56;;;;;;;18.13;8.47;;;;;;;2.65;87.78;99191.75;5034963;28;20052;-71
2021/01/06 00:21:25;;;;;;;29.60;12.88;;;;;;;2.85;87.40;99188.84;5092302;28;20071;-72
2021/01/06 00:23:55;;;;;;;28.05;12.02;;;;;;;3.08;88.00;99177.56;5113999;28;20077;-71
2021/01/06 00:26:23;;;;;;;32.30;14.40;;;;;;;3.24;87.44;99179.56;5113898;28;20036;-71
2021/01/06 00:28:53;;;;;;;27.25;13.55;;;;;;;3.16;87.16;99181.09;5113997;28;20031;-71
2021/01/06 00:31:22;;;;;;;26.52;13.55;;;;;;;3.11;87.89;99182.66;5112915;28;20047;-71
2021/01/06 00:33:50;;;;;;;28.38;14.55;;;;;;;3.09;87.41;99180.13;5112718;28;20039;-71
2021/01/06 00:36:21;;;;;;;25.67;13.45;;;;;;;3.06;87.77;99181.72;5113909;28;20043;-72
2021/01/06 00:38:50;;;;;;;28.00;14.45;;;;;;;3.09;87.43;99184.31;5116794;28;20164;-71
2021/01/06 00:41:26;;;;;;;31.02;13.65;;;;;;;3.04;87.13;99180.84;5118137;28;20486;-72
2021/01/06 00:43:57;;;;;;;26.73;12.82;;;;;;;3.04;87.47;99185.88;5118085;28;20051;-72
2021/01/06 00:46:30;;;;;;;26.88;13.32;;;;;;;3.09;87.93;99194.41;5118037;28;20104;-72
2021/01/06 00:49:00;;;;;;;24.42;13.10;;;;;;;3.09;87.83;99189.34;5116875;28;20039;-71
2021/01/06 00:51:29;;;;;;;31.52;14.90;;;;;;;3.13;87.54;99186.06;5116732;28;20052;-71
2021/01/06 00:53:57;;;;;;;28.40;14.10;;;;;;;3.16;87.57;99191.19;5118194;28;20044;-72
2021/01/06 00:56:29;;;;;;;29.00;14.10;;;;;;;3.10;87.10;99191.03;5116747;28;20067;-72
2021/01/06 00:59:01;;;;;;;26.38;13.20;;;;;;;3.08;87.08;99192.69;5116702;28;20082;-71
2021/01/06 01:01:29;;;;;;;;;;;;;;;3.09;87.15;99199.44;5116874;28;20066;-72
2021/01/06 01:04:02;;;;;;;25.65;12.85;;;;;;;3.10;87.97;99196.06;5116524;28;19927;-72
2021/01/06 01:06:33;;;;;;;28.10;13.90;;;;;;;3.15;87.35;99195.34;5117671;28;20056;-71
2021/01/06 01:09:05;;;;;;;26.88;14.00;;;;;;;3.21;87.36;99194.66;5117708;28;20039;-72
2021/01/06 01:11:37;;;;;;;26.42;13.23;;;;;;;3.22;87.54;99179.53;5117644;28;20390;-71
2021/01/06 01:14:08;;;;;;;26.75;13.13;;;;;;;3.16;87.84;99176.91;5117505;28;20062;-72
2021/01/06 01:16:41;;;;;;;23.95;12.60;;;;;;;3.09;87.50;99174.22;5117490;28;20489;-71
2021/01/06 01:19:10;;;;;;;25.83;14.05;;;;;;;3.05;88.17;99172.44;5117523;28;20056;-71
2021/01/06 01:21:39;;;;;;;26.15;14.43;;;;;;;3.10;88.10;99175.91;5117170;28;20069;-71
2021/01/06 01:24:08;;;;;;;26.10;13.98;;;;;;;3.14;88.22;99162.56;5117110;28;20485;-71
2021/01/06 01:26:36;;;;;;;23.70;12.98;;;;;;;3.07;88.19;99158.22;5117284;28;20052;-71
2021/01/06 01:29:05;;;;;;;29.13;14.35;;;;;;;3.09;87.87;99156.59;5117237;28;20086;-72
2021/01/06 01:31:35;;;;;;;23.10;12.43;;;;;;;3.16;87.68;99151.69;5117222;28;20046;-72
2021/01/06 01:34:04;;;;;;;24.92;12.95;;;;;;;3.21;87.63;99146.75;5117043;28;20059;-71
2021/01/06 01:36:32;;;;;;;25.75;13.10;;;;;;;3.22;88.13;99148.44;5117407;28;20118;-72
2021/01/06 01:39:01;;;;;;;24.20;11.85;;;;;;;3.21;87.37;99149.28;5117031;28;20039;-71
2021/01/06 01:41:29;;;;;;;28.85;12.48;;;;;;;3.25;87.35;99138.41;5116874;28;20116;-71
2021/01/06 01:43:57;;;;;;;31.45;13.07;;;;;;;3.35;88.04;99140.28;5115875;28;20100;-72
2021/01/06 01:46:43;;;;;;;27.35;12.57;;;;;;;3.45;86.84;99139.66;5116886;28;20040;-72
2021/01/06 01:49:21;;;;;;;25.83;11.88;;;;;;;3.49;86.40;99143.06;5116696;28;20050;-72
2021/01/06 01:51:57;;;;;;;29.65;11.85;;;;;;;3.52;86.10;99145.66;5116788;28;20043;-72
2021/01/06 01:54:29;;;;;;;26.27;11.15;;;;;;;3.56;85.42;99137.31;5117016;28;20055;-72
2021/01/06 01:57:07;;;;;;;22.08;10.38;;;;;;;3.61;84.58;99139.09;5116702;28;20131;-72
2021/01/06 01:59:44;;;;;;;22.33;10.50;;;;;;;3.61;84.24;99131.53;5116519;28;20485;-71
2021/01/06 02:02:17;;;;;;;23.02;10.25;;;;;;;3.32;83.82;99087.28;5116690;28;20055;-71
2021/01/06 02:04:53;;;;;;;20.83;9.35;;;;;;;3.60;84.12;99134.84;5115269;28;20043;-71
2021/01/06 02:07:28;;;;;;;23.38;10.43;;;;;;;3.59;83.67;99138.22;5116567;28;20046;-71
2021/01/06 02:10:02;;;;;;;21.75;9.80;;;;;;;3.59;83.30;99133.19;5116453;28;20059;-71
2021/01/06 02:12:37;;;;;;;27.85;11.30;;;;;;;3.59;82.81;99133.19;5116393;28;20473;-72
2021/01/06 02:15:15;;;;;;;25.38;10.77;;;;;;;3.58;82.51;99126.41;5116405;28;20071;-72
2021/01/06 02:17:43;;;;;;;25.17;9.95;;;;;;;3.61;82.81;99120.59;5116617;28;20071;-71
2021/01/06 02:20:17;;;;;;;25.50;11.27;;;;;;;3.65;82.47;99125.72;5116260;28;20383;-71
2021/01/06 02:22:48;;;;;;;24.30;10.77;;;;;;;3.67;82.68;99121.53;5115893;28;20040;-71
2021/01/06 02:25:18;;;;;;;27.33;11.60;;;;;;;3.63;82.00;99124.84;5116125;28;20536;-71
2021/01/06 02:27:46;;;;;;;;;;;;;;;3.59;82.45;99118.03;5116530;28;20051;-72
2021/01/06 02:30:16;;;;;;;29.25;12.25;;;;;;;3.60;82.25;99124.78;5116016;27;20001;-71
2021/01/06 02:32:45;;;;;;;;;;;;;;;3.58;82.78;99113.81;5116419;27;20409;-71
2021/01/06 02:35:14;;;;;;;25.98;12.02;;;;;;;3.57;82.45;99116.31;5115951;28;19920;-71
2021/01/06 02:37:43;;;;;;;27.83;11.27;;;;;;;3.57;82.08;99113.78;5115899;27;20047;-71
2021/01/06 02:40:16;;;;;;;26.50;11.73;;;;;;;3.56;82.38;99112.94;5115783;28;20047;-71
2021/01/06 02:42:47;;;;;;;30.00;12.32;;;;;;;3.55;83.22;99111.22;5115790;28;20048;-72
2021/01/06 02:45:17;;;;;;;25.73;11.52;;;;;;;3.56;82.78;99115.47;5115790;28;20083;-71
2021/01/06 02:47:50;;;;;;;20.85;9.23;;;;;;;3.52;82.79;99101.09;5115743;28;20036;-72
2021/01/06 02:50:24;;;;;;;25.92;11.23;;;;;;;3.57;82.62;99103.72;5115497;28;20043;-71
2021/01/06 02:52:56;;;;;;;23.20;10.73;;;;;;;3.52;82.02;99096.06;5115676;28;20386;-71
2021/01/06 02:55:27;;;;;;;21.77;9.35;;;;;;;3.51;82.42;99096.88;5115523;28;20043;-71
2021/01/06 02:58:01;;;;;;;18.30;8.43;;;;;;;3.54;81.67;99091.88;5115604;28;20051;-71
2021/01/06 03:00:29;;;;;;;24.17;10.25;;;;;;;3.52;80.87;99088.50;5115473;28;20056;-71
2021/01/06 03:02:59;;;;;;;21.60;9.45;;;;;;;3.53;81.06;99082.59;5114640;28;20070;-72
2021/01/06 03:05:35;;;;;;;18.45;8.45;;;;;;;3.32;80.24;99036.84;5115374;28;20056;-71
2021/01/06 03:08:04;;;;;;;23.23;9.25;;;;;;;3.55;80.05;99065.81;5115356;28;20454;-71
2021/01/06 03:10:34;;;;;;;17.70;7.25;;;;;;;3.54;80.17;99065.81;5115398;28;20542;-71
2021/01/06 03:13:06;;;;;;;20.40;8.45;;;;;;;3.54;80.05;99069.19;5115180;28;20047;-71
2021/01/06 03:15:39;;;;;;;20.98;8.43;;;;;;;3.53;80.05;99067.47;5114969;28;20056;-72
2021/01/06 03:18:09;;;;;;;21.77;8.88;;;;;;;3.55;80.05;99070.88;5115175;28;20136;-71
2021/01/06 03:20:43;;;;;;;19.77;7.95;;;;;;;3.59;79.57;99066.75;5114988;28;20093;-71
2021/01/06 03:23:15;;;;;;;18.08;8.00;;;;;;;3.42;79.09;99027.75;5114794;28;20051;-72
2021/01/06 03:25:45;;;;;;;16.77;7.80;;;;;;;3.68;78.76;99062.69;5114998;28;20496;-71
2021/01/06 03:28:16;;;;;;;17.63;7.35;;;;;;;3.66;79.12;99069.41;5113732;28;20554;-71
2021/01/06 03:30:46;;;;;;;18.30;7.65;;;;;;;3.67;78.36;99060.97;5115239;28;20086;-71
2021/01/06 03:33:27;;;;;;;22.67;7.97;;;;;;;3.50;78.79;99028.75;5114834;28;20063;-72
2021/01/06 03:36:04;;;;;;;15.68;7.57;;;;;;;3.67;78.82;99050.06;5114628;27;20126;-72
2021/01/06 03:38:34;;;;;;;16.05;7.70;;;;;;;3.68;78.57;99047.56;5114802;28;20051;-72
2021/01/06 03:41:06;;;;;;;15.18;6.70;;;;;;;3.71;78.99;99050.13;5114653;28;20048;-72
2021/01/06 03:43:40;;;;;;;16.67;7.35;;;;;;;3.72;78.81;99046.78;5114698;28;20124;-71
2021/01/06 03:46:18;;;;;;;15.77;6.47;;;;;;;3.74;78.56;99052.69;5114873;28;20188;-72
2021/01/06 03:48:58;;;;;;;16.05;6.85;;;;;;;3.74;78.07;99050.16;5114852;28;20086;-72
2021/01/06 03:51:34;;;;;;;16.02;7.32;;;;;;;3.74;78.17;99045.13;5114648;28;20044;-72
2021/01/06 03:54:20;;;;;;;15.93;7.88;;;;;;;3.77;78.67;99030.03;5114470;28;20047;-72
2021/01/06 03:56:54;;;;;;;18.55;8.35;;;;;;;3.78;78.22;99026.69;5114382;28;20044;-72
2021/01/06 03:59:25;;;;;;;21.52;8.85;;;;;;;3.74;78.93;99026.63;5114440;28;20060;-72
2021/01/06 04:02:00;;;;;;;21.67;8.95;;;;;;;3.68;79.24;99019.81;5114563;28;20054;-72
2021/01/06 04:04:33;;;;;;;22.25;8.75;;;;;;;3.67;79.34;99013.03;5114284;28;20078;-71
2021/01/06 04:07:03;;;;;;;18.80;8.23;;;;;;;3.63;79.41;99002.88;5114262;28;20059;-71
2021/01/06 04:09:35;;;;;;;21.48;8.85;;;;;;;3.61;80.00;99007.06;5114210;28;20046;-71
2021/01/06 04:12:08;;;;;;;18.20;8.57;;;;;;;3.60;79.50;99010.44;5114053;28;20047;-72
2021/01/06 04:14:38;;;;;;;17.35;7.55;;;;;;;3.60;79.72;99007.91;5114176;28;20062;-71
2021/01/06 04:17:16;;;;;;;22.55;8.55;;;;;;;3.57;79.66;99008.69;5114103;28;20044;-72
2021/01/06 04:19:48;;;;;;;20.55;8.93;;;;;;;3.55;80.27;98996.88;5114084;28;20059;-72
2021/01/06 04:22:23;;;;;;;20.65;8.77;;;;;;;3.53;80.69;98990.97;5113836;28;20036;-72
2021/01/06 04:24:55;;;;;;;19.98;8.50;;;;;;;3.53;80.93;98984.22;5115203;28;20040;-71
2021/01/06 04:27:26;;;;;;;16.02;8.05;;;;;;;3.52;80.63;98994.31;5114032;28;20494;-71
2021/01/06 04:29:55;;;;;;;18.33;8.60;;;;;;;3.53;80.53;98991.81;5113984;28;20052;-71
2021/01/06 04:32:30;;;;;;;18.80;8.63;;;;;;;3.53;81.36;98990.97;5114002;28;20084;-71
2021/01/06 04:35:00;;;;;;;17.90;7.72;;;;;;;3.52;81.29;98997.69;5114280;28;20044;-71
2021/01/06 04:37:28;;;;;;;19.15;8.52;;;;;;;3.51;81.16;98992.59;5113847;28;20056;-71
2021/01/06 04:39:58;;;;;;;20.17;8.63;;;;;;;3.49;81.24;98990.06;5114319;28;20055;-71
2021/01/06 04:42:29;;;;;;;19.50;7.80;;;;;;;3.14;81.58;98949.13;5113787;28;20118;-71
2021/01/06 04:45:05;;;;;;;22.73;8.90;;;;;;;3.47;81.49;98999.28;5113856;28;20132;-71
2021/01/06 04:47:47;;;;;;;22.38;10.02;;;;;;;3.46;82.27;99004.28;5113736;28;20116;-71
2021/01/06 04:50:42;;;;;;;22.55;9.77;;;;;;;3.28;82.59;98969.56;5114172;28;20043;-72
2021/01/06 04:53:20;;;;;;;25.17;9.50;;;;;;;3.22;82.21;98949.25;5114066;28;20044;-71
2021/01/06 04:55:58;;;;;;;22.20;9.35;;;;;;;3.43;82.22;98987.47;5113828;28;20108;-72
2021/01/06 04:58:41;;;;;;;23.17;9.52;;;;;;;3.42;82.50;98973.13;5113811;28;20463;-72
2021/01/06 05:01:35;;;;;;;25.88;10.40;;;;;;;3.40;83.10;98969.75;5113651;28;20055;-71
2021/01/06 05:04:15;;;;;;;27.23;10.93;;;;;;;3.37;82.57;98974.72;5113634;28;20063;-71
2021/01/06 05:06:49;;;;;;;24.40;10.93;;;;;;;3.45;83.57;98993.38;5113611;28;20047;-71
2021/01/06 05:09:24;;;;;;;24.15;10.32;;;;;;;3.41;83.00;98991.59;5113703;28;20044;-72
2021/01/06 05:11:58;;;;;;;25.50;10.60;;;;;;;3.20;82.95;98961.00;5113967;28;20489;-72
2021/01/06 05:14:33;;;;;;;25.90;11.68;;;;;;;3.38;83.50;98986.53;5113534;28;20039;-71
2021/01/06 05:17:01;;;;;;;26.83;12.23;;;;;;;3.38;83.39;98981.50;5113927;28;20085;-72
2021/01/06 05:19:32;;;;;;;27.30;11.48;;;;;;;3.40;83.85;98994.97;5113329;28;20040;-72
2021/01/06 05:22:05;;;;;;;27.27;11.45;;;;;;;3.34;83.73;98995.72;5113592;28;20052;-72
2021/01/06 05:24:36;;;;;;;30.67;12.63;;;;;;;3.37;83.97;98999.94;5114343;28;20546;-71
2021/01/06 05:27:17;;;;;;;30.27;12.75;;;;;;;3.22;84.14;98965.25;5117357;27;20067;-72
2021/01/06 05:29:49;;;;;;;26.08;11.57;;;;;;;3.35;84.41;98991.50;5116175;28;20049;-72
2021/01/06 05:32:21;;;;;;;25.88;11.75;;;;;;;3.33;84.62;98998.22;5117139;28;20185;-71
2021/01/06 05:34:54;;;;;;;28.00;12.82;;;;;;;3.36;84.27;99003.28;5117536;28;20040;-72
2021/01/06 05:37:24;;;;;;;30.98;12.20;;;;;;;3.35;84.46;98992.38;5117106;28;20043;-72
2021/01/06 05:39:54;;;;;;;28.15;12.57;;;;;;;3.34;84.69;98990.66;5117075;28;20043;-71
2021/01/06 05:42:27;;;;;;;27.30;12.23;;;;;;;3.21;84.96;98966.09;5117384;27;20090;-71
2021/01/06 05:44:58;;;;;;;27.00;12.73;;;;;;;3.37;85.33;98984.81;5116933;28;20132;-71
2021/01/06 05:47:34;;;;;;;29.23;12.77;;;;;;;3.36;85.23;98983.13;5117219;28;20052;-72
2021/01/06 05:50:06;;;;;;;29.02;12.45;;;;;;;3.37;84.67;98979.78;5117263;28;20130;-71
2021/01/06 05:52:35;;;;;;;30.90;12.57;;;;;;;3.36;84.93;98978.06;5116792;28;20043;-71
2021/01/06 05:55:07;;;;;;;29.13;12.25;;;;;;;3.34;85.84;98979.72;5116826;28;20076;-71
2021/01/06 05:57:45;;;;;;;31.88;13.50;;;;;;;3.18;85.79;98947.53;5116795;28;20052;-71
2021/01/06 06:00:26;;;;;;;31.20;13.90;;;;;;;3.31;85.29;98974.66;5116640;28;20108;-71
2021/01/06 06:03:15;;;;;;;28.77;12.40;;;;;;;3.33;86.00;98978.91;5116688;28;20067;-70
2021/01/06 06:05:56;;;;;;;29.65;11.80;;;;;;;3.34;85.93;98983.09;5116469;28;20075;-71
2021/01/06 06:08:43;;;;;;;28.58;12.98;;;;;;;3.35;86.28;98976.38;5116597;28;20126;-72
2021/01/06 06:11:27;;;;;;;28.38;13.23;;;;;;;3.34;85.52;98974.69;5116442;28;20053;-71
2021/01/06 06:14:25;;;;;;;30.02;14.38;;;;;;;3.35;85.74;98976.38;5116470;28;20101;-71
2021/01/06 06:17:04;;;;;;;27.10;12.37;;;;;;;3.38;86.44;98976.44;5116619;28;20562;-71
2021/01/06 06:19:47;;;;;;;27.95;11.70;;;;;;;3.37;86.64;98969.69;5116326;28;20043;-71
2021/01/06 06:22:23;;;;;;;25.65;11.40;;;;;;;3.38;86.52;98959.63;5116053;28;20047;-71
2021/01/06 06:24:58;;;;;;;23.90;11.52;;;;;;;3.39;86.58;98957.94;5116085;28;20185;-71
2021/01/06 06:27:35;;;;;;;26.17;10.88;;;;;;;3.41;86.18;98958.81;5116153;28;20051;-72
2021/01/06 06:30:19;;;;;;;26.77;11.50;;;;;;;3.22;85.99;98919.00;5116104;28;20040;-71
2021/01/06 06:32:49;;;;;;;24.55;11.00;;;;;;;3.38;85.71;98949.53;5116103;28;20055;-71
2021/01/06 06:35:26;;;;;;;22.65;10.75;;;;;;;3.40;85.77;98944.53;5115837;28;20096;-71
2021/01/06 06:37:56;;;;;;;21.92;10.18;;;;;;;3.42;86.24;98952.97;5115831;28;20450;-71
2021/01/06 06:40:46;;;;;;;21.65;9.00;;;;;;;3.47;85.93;98951.38;5116278;28;20404;-72
2021/01/06 06:43:25;;;;;;;23.13;9.10;;;;;;;3.52;85.70;98957.34;5115833;28;20442;-71
2021/01/06 06:46:02;;;;;;;18.90;8.48;;;;;;;3.53;85.72;98961.53;5115757;28;20046;-72
2021/01/06 06:48:40;;;;;;;17.58;8.95;;;;;;;3.56;85.81;98966.63;5115812;28;20056;-71
2021/01/06 06:51:17;;;;;;;16.48;7.53;;;;;;;3.59;85.99;98965.84;5115672;28;20067;-71
2021/01/06 06:53:56;;;;;;;16.30;8.50;;;;;;;3.58;85.70;98964.13;5115980;28;20058;-71
2021/01/06 06:56:38;;;;;;;19.83;9.43;;;;;;;3.54;85.31;98969.97;5115595;28;20063;-71
2021/01/06 06:59:12;;;;;;;17.20;8.68;;;;;;;3.53;85.28;98969.09;5115897;28;20047;-71
2021/01/06 07:01:44;;;;;;;24.65;9.68;;;;;;;3.56;85.38;98966.63;5115548;28;20506;-71
2021/01/06 07:04:21;;;;;;;20.60;9.23;;;;;;;3.54;85.11;98973.34;5114253;28;20043;-71
2021/01/06 07:06:54;;;;;;;24.25;10.88;;;;;;;3.53;85.21;98970.81;5115256;28;20051;-71
2021/01/06 07:09:29;;;;;;;20.90;9.02;;;;;;;3.52;85.20;98969.94;5115336;27;20428;-72
2021/01/06 07:12:04;;;;;;;21.88;9.35;;;;;;;3.51;86.06;98962.34;5115267;28;20047;-72
2021/01/06 07:14:36;;;;;;;24.90;10.00;;;;;;;3.50;85.91;98961.50;5115517;28;20048;-72
2021/01/06 07:17:12;;;;;;;18.75;8.60;;;;;;;3.50;86.37;98956.47;5115188;28;20344;-72
2021/01/06 07:19:57;;;;;;;17.45;8.63;;;;;;;3.50;86.27;98953.94;5115148;27;20052;-71
2021/01/06 07:22:34;;;;;;;19.42;8.48;;;;;;;3.44;85.52;98946.28;5114744;28;20052;-71
2021/01/06 07:25:25;;;;;;;25.10;10.60;;;;;;;3.45;85.93;98937.88;5114891;28;20048;-72
2021/01/06 07:27:57;;;;;;;19.50;9.93;;;;;;;3.50;85.64;98946.38;5114975;28;20481;-71
2021/01/06 07:30:30;;;;;;;21.00;9.32;;;;;;;3.35;86.34;98908.31;5115022;28;20044;-73
2021/01/06 07:33:00;;;;;;;21.73;9.70;;;;;;;3.50;85.84;98933.75;5114929;28;20055;-71
2021/01/06 07:35:31;;;;;;;21.80;9.10;;;;;;;3.52;85.87;98933.78;5114814;28;20386;-72
2021/01/06 07:38:02;;;;;;;21.20;8.75;;;;;;;3.52;86.04;98934.63;5114758;28;20062;-72
2021/01/06 07:40:33;;;;;;;17.63;8.20;;;;;;;3.52;86.13;98942.19;5114748;28;20130;-71
2021/01/06 07:43:08;;;;;;;19.48;8.75;;;;;;;3.55;85.95;98933.84;5114702;28;20382;-71
2021/01/06 07:45:40;;;;;;;18.80;8.07;;;;;;;3.56;86.31;98936.38;5114565;28;20048;-71
2021/01/06 07:48:25;;;;;;;19.83;8.70;;;;;;;3.56;86.95;98931.31;5114026;28;20059;-71
2021/01/06 07:51:06;;;;;;;22.42;9.18;;;;;;;3.57;86.48;98937.22;5113375;28;20145;-72
2021/01/06 07:53:39;;;;;;;17.85;8.13;;;;;;;3.56;86.82;98945.59;5114498;28;20057;-72
2021/01/06 07:56:20;;;;;;;14.88;7.18;;;;;;;3.59;87.12;98946.50;5114475;28;20048;-72
2021/01/06 07:58:54;;;;;;;11.73;5.25;;;;;;;3.60;86.49;98957.44;5114410;28;20135;-72
2021/01/06 08:01:34;;;;;;;7.95;3.60;;;;;;;3.69;86.25;98963.47;5114325;28;20047;-72
2021/01/06 08:04:09;;;;;;;5.70;3.10;;;;;;;3.64;86.32;98960.03;5114356;28;20542;-72
2021/01/06 08:06:40;;;;;;;8.60;3.58;;;;;;;3.68;85.30;98979.44;5114219;27;20048;-72
2021/01/06 08:09:09;;;;;;;6.30;3.25;;;;;;;3.67;85.37;98974.38;5114305;28;20416;-72
2021/01/06 08:11:47;;;;;;;6.60;3.40;;;;;;;3.64;85.80;98972.66;5114213;28;20039;-72
2021/01/06 08:14:22;;;;;;;5.93;3.38;;;;;;;3.45;85.58;98937.88;5113064;28;20039;-72
2021/01/06 08:16:55;;;;;;;7.95;3.55;;;;;;;3.66;85.63;98958.38;5114247;28;20051;-73
2021/01/06 08:19:27;;;;;;;8.65;3.47;;;;;;;3.68;85.30;98963.44;5114086;28;20036;-72
2021/01/06 08:22:02;;;;;;;7.82;3.47;;;;;;;3.72;85.57;98967.72;5114103;28;20059;-72
2021/01/06 08:24:41;;;;;;;9.75;4.25;;;;;;;3.72;85.62;98960.97;5113374;28;20060;-72
2021/01/06 08:27:14;;;;;;;10.07;4.53;;;;;;;3.77;86.21;98966.94;5112924;28;20417;-72
2021/01/06 08:29:43;;;;;;;9.65;4.68;;;;;;;3.78;85.90;98965.28;5114028;28;20051;-71
2021/01/06 08:32:23;;;;;;;8.43;4.53;;;;;;;3.79;85.55;98972.03;5113943;28;20422;-71
2021/01/06 08:34:58;;;;;;;10.25;5.32;;;;;;;3.79;85.33;98970.34;5113995;28;20046;-72
2021/01/06 08:37:44;;;;;;;12.05;5.82;;;;;;;3.77;86.22;98961.03;5113634;28;20383;-73
2021/01/06 08:40:26;;;;;;;12.30;6.03;;;;;;;3.78;86.40;98985.47;5113579;28;20043;-72
2021/01/06 08:42:55;;;;;;;14.70;5.57;;;;;;;3.63;85.75;98958.31;5113770;28;20048;-71
2021/01/06 08:45:43;;;;;;;14.32;7.40;;;;;;;3.75;85.97;98987.94;5135335;22;20027;-71
2021/01/06 08:48:27;;;;;;;9.93;4.40;;;;;;;3.75;86.46;98983.75;5052098;28;20482;-68
2021/01/06 08:50:59;;;;;;;9.98;5.30;;;;;;;3.78;86.33;98976.22;5053344;28;20059;-68
2021/01/06 08:53:34;;;;;;;33.97;20.23;;;;;;;3.58;86.68;98944.78;5052920;28;20489;-68
2021/01/06 08:56:25;;;;;;;37.28;20.42;;;;;;;3.70;86.58;98964.31;5052830;28;20102;-68
2021/01/06 08:59:27;;;;;;;22.38;11.75;;;;;;;3.84;86.81;98973.78;5054347;28;20056;-68
2021/01/06 09:01:59;;;;;;;17.58;9.30;;;;;;;3.85;87.21;98974.63;5057157;28;20053;-68
2021/01/06 09:04:40;;;;;;;9.82;5.45;;;;;;;3.92;86.76;98984.84;5056769;28;20410;-68
2021/01/06 09:07:21;;;;;;;13.75;7.55;;;;;;;3.89;86.94;98987.31;5056635;28;20053;-68
2021/01/06 09:10:16;;;;;;;11.00;6.28;;;;;;;3.89;86.68;98991.50;5056617;28;20056;-68
2021/01/06 09:12:58;;;;;;;11.57;5.57;;;;;;;3.84;87.36;98983.88;5054653;28;20057;-68
2021/01/06 09:15:34;;;;;;;11.88;5.90;;;;;;;3.92;86.47;99002.50;5056884;28;20136;-68
2021/01/06 09:18:11;;;;;;;10.88;6.57;;;;;;;3.92;87.03;98991.56;5056595;28;20110;-68
2021/01/06 09:21:20;;;;;;;13.38;7.22;;;;;;;3.90;86.83;98988.16;5057144;28;20071;-68
2021/01/06 09:24:10;;;;;;;10.07;5.28;;;;;;;3.89;86.80;98978.88;5056485;28;20057;-68
2021/01/06 09:26:42;;;;;;;9.02;5.38;;;;;;;3.87;87.17;98978.88;5056228;28;20076;-68
2021/01/06 09:29:26;;;;;;;12.85;7.55;;;;;;;3.88;87.28;98975.53;5056241;28;20076;-68
2021/01/06 09:32:12;;;;;;;13.55;7.22;;;;;;;3.78;87.28;98973.72;5056578;28;20126;-68
2021/01/06 09:34:45;;;;;;;10.93;5.63;;;;;;;3.38;87.48;98899.09;5056553;28;20052;-67
2021/01/06 09:37:21;;;;;;;14.77;6.50;;;;;;;4.04;87.13;98979.97;5056000;28;20491;-67
2021/01/06 09:39:50;;;;;;;11.25;5.30;;;;;;;4.12;86.54;98984.28;5056453;28;20505;-67
2021/01/06 09:42:36;;;;;;;10.80;5.13;;;;;;;4.17;86.60;98985.19;5056366;28;20118;-67
2021/01/06 09:45:21;;;;;;;9.85;5.45;;;;;;;4.21;86.37;98984.38;5056032;28;20056;-67
2021/01/06 09:47:57;;;;;;;9.70;5.15;;;;;;;4.23;85.56;98972.63;5056312;28;20437;-67
2021/01/06 09:50:46;;;;;;;9.95;5.25;;;;;;;4.25;85.00;98981.09;5056068;28;20053;-67
2021/01/06 09:53:29;;;;;;;8.32;4.60;;;;;;;4.24;84.65;98969.28;5055731;28;20060;-67
2021/01/06 09:55:58;;;;;;;9.43;5.07;;;;;;;4.22;84.59;98968.41;5056252;28;20049;-67
2021/01/06 09:58:31;;;;;;;7.40;3.63;;;;;;;4.21;84.31;98974.28;5055907;28;20053;-67
2021/01/06 10:01:09;;;;;;;8.38;4.15;;;;;;;4.20;84.40;98970.91;5055966;28;20061;-67
2021/01/06 10:03:58;;;;;;;9.20;4.25;;;;;;;4.23;83.85;98970.09;5055922;28;20133;-66
2021/01/06 10:06:49;;;;;;;10.52;4.50;;;;;;;4.21;83.82;98974.28;5055581;28;20057;-67
2021/01/06 10:09:27;;;;;;;8.15;4.82;;;;;;;4.22;83.68;98965.91;5055987;28;20095;-67
2021/01/06 10:12:48;;;;;;;8.75;4.40;;;;;;;4.28;83.51;98965.94;5055282;28;20095;-67
2021/01/06 10:15:43;;;;;;;8.45;3.75;;;;;;;4.34;83.67;98963.53;5055815;28;20053;-67
2021/01/06 10:18:22;;;;;;;8.65;4.10;;;;;;;4.34;83.87;98955.94;5055797;28;20410;-67
2021/01/06 10:21:00;;;;;;;10.23;4.13;;;;;;;4.34;83.16;98961.00;5055702;28;20048;-67
2021/01/06 10:23:38;;;;;;;7.93;3.40;;;;;;;4.29;83.19;98947.47;5056556;28;20545;-67
2021/01/06 10:26:40;;;;;;;7.22;3.22;;;;;;;4.37;82.67;98943.31;5055537;28;20052;-67
2021/01/06 10:29:39;;;;;;;7.18;3.50;;;;;;;4.42;83.60;98940.03;5054906;28;20056;-67
2021/01/06 10:32:46;;;;;;;5.72;3.15;;;;;;;4.53;83.30;98937.66;5055542;28;20088;-67
2021/01/06 10:35:36;;;;;;;6.20;2.88;;;;;;;4.53;82.93;98928.38;5055418;28;20045;-67
2021/01/06 10:38:22;;;;;;;4.45;2.30;;;;;;;4.44;82.38;98932.50;5055418;28;20484;-67
2021/01/06 10:41:17;;;;;;;6.25;3.47;;;;;;;4.42;82.86;98934.97;5055369;28;20048;-67
2021/01/06 10:44:28;;;;;;;7.20;3.35;;;;;;;4.48;82.87;98931.69;5054783;28;20049;-67
2021/01/06 10:47:23;;;;;;;7.05;3.10;;;;;;;4.43;82.42;98938.38;5054954;28;20053;-67
2021/01/06 10:49:56;;;;;;;8.05;3.28;;;;;;;4.43;82.94;98925.72;5055146;28;20486;-67
2021/01/06 10:52:35;;;;;;;6.53;3.58;;;;;;;4.41;82.98;98928.25;5055471;28;20063;-66
2021/01/06 10:55:42;;;;;;;8.82;4.32;;;;;;;4.37;82.79;98923.13;5055041;28;20045;-67
2021/01/06 10:58:35;;;;;;;7.15;4.20;;;;;;;4.42;83.00;98916.44;5055004;28;20103;-68
2021/01/06 11:01:43;;;;;;;7.03;3.55;;;;;;;4.42;83.00;98924.03;5055049;28;20111;-66
2021/01/06 11:04:49;;;;;;;7.28;3.42;;;;;;;4.36;82.38;98917.25;5054463;28;20064;-66
2021/01/06 11:07:26;;;;;;;9.40;4.47;;;;;;;4.35;82.98;98923.13;5055059;28;20049;-67
2021/01/06 11:10:29;;;;;;;9.95;4.93;;;;;;;4.38;83.42;98929.88;5054757;28;20080;-67
2021/01/06 11:13:35;;;;;;;7.15;4.15;;;;;;;4.42;83.16;98918.97;5054331;28;20449;-67
2021/01/06 11:16:11;;;;;;;10.25;4.78;;;;;;;4.40;83.50;98930.75;5054991;28;20084;-67
2021/01/06 11:19:01;;;;;;;10.88;5.38;;;;;;;4.36;83.44;98929.03;5054624;28;20124;-67
2021/01/06 11:22:04;;;;;;;8.88;4.22;;;;;;;4.28;83.14;98921.34;5053473;28;20063;-68
2021/01/06 11:24:50;;;;;;;10.82;4.70;;;;;;;4.24;83.74;98929.72;5054537;28;20080;-66
2021/01/06 11:27:45;;;;;;;11.57;4.95;;;;;;;4.24;83.08;98928.88;5054337;28;20045;-66
2021/01/06 11:30:27;;;;;;;9.70;4.68;;;;;;;4.24;83.22;98923.81;5054076;28;20053;-66
2021/01/06 11:33:25;;;;;;;10.65;5.00;;;;;;;4.25;83.43;98925.53;5054383;28;20057;-66
2021/01/06 11:36:33;;;;;;;14.15;5.13;;;;;;;4.22;83.42;98925.50;5054069;28;20072;-66
2021/01/06 11:39:05;;;;;;;7.57;3.83;;;;;;;4.24;83.40;98918.78;5050059;28;20520;-66
2021/01/06 11:42:04;;;;;;;15.90;6.97;;;;;;;4.18;83.46;98913.63;5054195;28;20053;-66
2021/01/06 11:44:40;;;;;;;10.10;5.47;;;;;;;4.18;84.07;98913.63;5049842;28;20135;-66
2021/01/06 11:47:26;;;;;;;12.00;5.80;;;;;;;4.15;83.58;98913.63;5053536;28;20049;-66
2021/01/06 11:50:08;;;;;;;10.35;5.20;;;;;;;4.16;84.05;98912.78;5054121;28;20056;-66
2021/01/06 11:53:16;;;;;;;11.57;4.95;;;;;;;4.11;83.79;98897.56;5053952;28;20045;-66
2021/01/06 11:56:04;;;;;;;11.50;5.05;;;;;;;4.20;84.14;98909.47;5053597;28;20498;-66
2021/01/06 11:58:54;;;;;;;10.73;5.93;;;;;;;4.22;83.93;98905.28;5053956;28;20061;-66
2021/01/06 12:01:56;;;;;;;5.25;3.33;;;;;;;4.21;84.21;98903.59;5053810;28;20494;-66
2021/01/06 12:05:01;;;;;;;10.70;4.82;;;;;;;4.15;84.02;98908.56;5053887;28;20052;-66
2021/01/06 12:07:48;;;;;;;10.40;5.25;;;;;;;4.16;84.47;98905.19;5053720;28;20124;-66
2021/01/06 12:10:26;;;;;;;9.63;5.30;;;;;;;4.15;84.40;98903.53;5053674;28;20099;-66
2021/01/06 12:13:06;;;;;;;10.93;5.93;;;;;;;4.13;84.16;98907.72;5053658;28;20040;-66
2021/01/06 12:15:44;;;;;;;12.60;4.93;;;;;;;4.18;84.43;98908.59;5053606;28;20453;-66
2021/01/06 12:18:26;;;;;;;11.32;5.13;;;;;;;4.18;84.76;98903.53;5053643;28;20059;-66
2021/01/06 12:21:00;;;;;;;12.15;5.38;;;;;;;4.19;84.67;98902.72;5053410;28;20051;-66